sensor_id;sensor_type;location;lat;lon;timestamp;pressure;altitude;pressure_sealevel;temperature;humidity
66176;BME280;52977;44.816;20.538;2023-12-22T00:00:16;97731.09;;;9.75;53.60
66176;BME280;52977;44.816;20.538;2023-12-22T00:02:43;97677.22;;;9.41;53.50
66176;BME280;52977;44.816;20.538;2023-12-22T00:05:09;97680.44;;;9.47;54.17
66176;BME280;52977;44.816;20.538;2023-12-22T00:07:35;97705.41;;;9.76;53.92
66176;BME280;52977;44.816;20.538;2023-12-22T00:10:02;97717.28;;;9.87;54.16
66176;BME280;52977;44.816;20.538;2023-12-22T00:12:28;97611.47;;;9.16;54.06
66176;BME280;52977;44.816;20.538;2023-12-22T00:14:54;97650.81;;;9.42;53.73
66176;BME280;52977;44.816;20.538;2023-12-22T00:17:20;97665.84;;;9.59;53.61
66176;BME280;52977;44.816;20.538;2023-12-22T00:19:46;97682.72;;;9.68;53.89
66176;BME280;52977;44.816;20.538;2023-12-22T00:22:12;97671.00;;;9.64;53.71
66176;BME280;52977;44.816;20.538;2023-12-22T00:24:37;97665.19;;;9.66;53.88
66176;BME280;52977;44.816;20.538;2023-12-22T00:27:04;97690.38;;;9.86;53.53
66176;BME280;52977;44.816;20.538;2023-12-22T00:29:30;97614.28;;;9.47;53.19
66176;BME280;52977;44.816;20.538;2023-12-22T00:31:56;97654.44;;;9.77;53.25
66176;BME280;52977;44.816;20.538;2023-12-22T00:34:22;97682.94;;;9.83;53.40
66176;BME280;52977;44.816;20.538;2023-12-22T00:36:48;97561.59;;;9.09;53.33
66176;BME280;52977;44.816;20.538;2023-12-22T00:39:13;97627.06;;;9.43;53.77
66176;BME280;52977;44.816;20.538;2023-12-22T00:41:39;97638.88;;;9.50;53.61
66176;BME280;52977;44.816;20.538;2023-12-22T00:44:05;97660.41;;;9.59;53.87
66176;BME280;52977;44.816;20.538;2023-12-22T00:46:32;97688.69;;;9.78;53.90
66176;BME280;52977;44.816;20.538;2023-12-22T00:48:58;97648.22;;;9.53;54.02
66176;BME280;52977;44.816;20.538;2023-12-22T00:51:24;97685.38;;;9.88;53.98
66176;BME280;52977;44.816;20.538;2023-12-22T00:53:51;97620.88;;;9.46;54.23
66176;BME280;52977;44.816;20.538;2023-12-22T00:56:17;97626.03;;;9.51;54.11
66176;BME280;52977;44.816;20.538;2023-12-22T00:58:43;97653.44;;;9.62;54.59
66176;BME280;52977;44.816;20.538;2023-12-22T01:01:09;97686.91;;;9.89;54.96
66176;BME280;52977;44.816;20.538;2023-12-22T01:03:36;97686.19;;;9.92;54.51
66176;BME280;52977;44.816;20.538;2023-12-22T01:06:02;97639.84;;;9.65;54.54
66176;BME280;52977;44.816;20.538;2023-12-22T01:08:28;97647.84;;;9.78;54.09
66176;BME280;52977;44.816;20.538;2023-12-22T01:10:55;97653.72;;;9.80;54.35
66176;BME280;52977;44.816;20.538;2023-12-22T01:13:21;97662.41;;;9.89;54.28
66176;BME280;52977;44.816;20.538;2023-12-22T01:15:47;97621.13;;;9.60;54.67
66176;BME280;52977;44.816;20.538;2023-12-22T01:18:14;97684.00;;;10.01;54.28
66176;BME280;52977;44.816;20.538;2023-12-22T01:20:40;97591.25;;;9.40;54.55
66176;BME280;52977;44.816;20.538;2023-12-22T01:23:06;97650.25;;;9.83;54.63
66176;BME280;52977;44.816;20.538;2023-12-22T01:25:33;97642.06;;;9.83;54.00
66176;BME280;52977;44.816;20.538;2023-12-22T01:27:59;97672.41;;;10.08;54.05
66176;BME280;52977;44.816;20.538;2023-12-22T01:30:26;97629.03;;;9.69;54.16
66176;BME280;52977;44.816;20.538;2023-12-22T01:32:52;97653.44;;;9.88;54.30
66176;BME280;52977;44.816;20.538;2023-12-22T01:35:19;97656.63;;;9.94;53.93
66176;BME280;52977;44.816;20.538;2023-12-22T01:37:45;97631.75;;;9.96;53.86
66176;BME280;52977;44.816;20.538;2023-12-22T01:40:13;97661.22;;;10.17;54.26
66176;BME280;52977;44.816;20.538;2023-12-22T01:42:40;97648.84;;;10.23;54.12
66176;BME280;52977;44.816;20.538;2023-12-22T01:45:07;97597.81;;;9.93;53.68
66176;BME280;52977;44.816;20.538;2023-12-22T01:47:34;97637.56;;;10.24;54.00
66176;BME280;52977;44.816;20.538;2023-12-22T01:50:01;97581.44;;;9.89;53.84
66176;BME280;52977;44.816;20.538;2023-12-22T01:52:28;97529.97;;;9.54;54.41
66176;BME280;52977;44.816;20.538;2023-12-22T01:54:55;97619.63;;;10.23;54.66
66176;BME280;52977;44.816;20.538;2023-12-22T01:57:21;97558.59;;;10.01;54.35
66176;BME280;52977;44.816;20.538;2023-12-22T01:59:48;97588.94;;;10.30;54.02
66176;BME280;52977;44.816;20.538;2023-12-22T02:02:16;97599.78;;;10.23;54.03
66176;BME280;52977;44.816;20.538;2023-12-22T02:04:42;97580.25;;;10.17;54.59
66176;BME280;52977;44.816;20.538;2023-12-22T02:07:09;97515.09;;;9.78;54.95
66176;BME280;52977;44.816;20.538;2023-12-22T02:09:36;97585.41;;;10.30;54.98
66176;BME280;52977;44.816;20.538;2023-12-22T02:12:03;97557.84;;;10.01;54.99
66176;BME280;52977;44.816;20.538;2023-12-22T02:14:30;97560.88;;;9.96;55.17
66176;BME280;52977;44.816;20.538;2023-12-22T02:17:20;97602.50;;;10.23;55.58
66176;BME280;52977;44.816;20.538;2023-12-22T02:19:50;97534.13;;;9.74;55.23
66176;BME280;52977;44.816;20.538;2023-12-22T02:22:17;97494.94;;;9.52;55.19
66176;BME280;52977;44.816;20.538;2023-12-22T02:24:43;97555.38;;;9.92;55.33
66176;BME280;52977;44.816;20.538;2023-12-22T02:27:21;97577.22;;;9.96;55.63
66176;BME280;52977;44.816;20.538;2023-12-22T02:29:57;97582.00;;;10.02;55.64
66176;BME280;52977;44.816;20.538;2023-12-22T02:32:34;97571.72;;;9.92;55.63
66176;BME280;52977;44.816;20.538;2023-12-22T02:35:03;97600.88;;;10.18;55.16
66176;BME280;52977;44.816;20.538;2023-12-22T02:37:32;97541.03;;;9.68;55.58
66176;BME280;52977;44.816;20.538;2023-12-22T02:39:58;97578.66;;;9.86;55.80
66176;BME280;52977;44.816;20.538;2023-12-22T02:42:25;97602.38;;;10.12;55.60
66176;BME280;52977;44.816;20.538;2023-12-22T02:44:57;97527.69;;;9.56;56.41
66176;BME280;52977;44.816;20.538;2023-12-22T02:47:23;97558.19;;;9.69;55.92
66176;BME280;52977;44.816;20.538;2023-12-22T02:49:49;97598.28;;;9.99;56.63
66176;BME280;52977;44.816;20.538;2023-12-22T02:52:14;97570.03;;;9.80;56.39
66176;BME280;52977;44.816;20.538;2023-12-22T02:54:40;97632.91;;;10.25;55.99
66176;BME280;52977;44.816;20.538;2023-12-22T02:57:09;97651.13;;;10.17;56.76
66176;BME280;52977;44.816;20.538;2023-12-22T02:59:36;97602.72;;;9.80;58.09
66176;BME280;52977;44.816;20.538;2023-12-22T03:02:02;97656.63;;;9.94;58.96
66176;BME280;52977;44.816;20.538;2023-12-22T03:04:28;97667.34;;;9.80;59.24
66176;BME280;52977;44.816;20.538;2023-12-22T03:06:54;97602.63;;;9.23;59.69
66176;BME280;52977;44.816;20.538;2023-12-22T03:09:19;97657.88;;;9.47;59.67
66176;BME280;52977;44.816;20.538;2023-12-22T03:11:45;97600.06;;;9.07;60.06
66176;BME280;52977;44.816;20.538;2023-12-22T03:14:11;97639.19;;;9.22;61.24
66176;BME280;52977;44.816;20.538;2023-12-22T03:16:36;97587.09;;;8.77;60.92
66176;BME280;52977;44.816;20.538;2023-12-22T03:19:02;97653.88;;;9.17;60.99
66176;BME280;52977;44.816;20.538;2023-12-22T03:21:28;97640.69;;;8.96;61.70
66176;BME280;52977;44.816;20.538;2023-12-22T03:23:53;97711.78;;;9.37;61.53
66176;BME280;52977;44.816;20.538;2023-12-22T03:26:19;97730.56;;;9.43;62.20
66176;BME280;52977;44.816;20.538;2023-12-22T03:28:45;97618.84;;;8.69;62.83
66176;BME280;52977;44.816;20.538;2023-12-22T03:31:10;97732.38;;;9.15;63.57
66176;BME280;52977;44.816;20.538;2023-12-22T03:33:36;97783.25;;;9.31;63.73
66176;BME280;52977;44.816;20.538;2023-12-22T03:36:02;97754.97;;;8.57;66.08
66176;BME280;52977;44.816;20.538;2023-12-22T03:38:28;97770.41;;;8.37;67.52
66176;BME280;52977;44.816;20.538;2023-12-22T03:40:53;97793.09;;;7.77;69.93
66176;BME280;52977;44.816;20.538;2023-12-22T03:43:20;97925.03;;;8.23;74.69
66176;BME280;52977;44.816;20.538;2023-12-22T03:45:46;97862.16;;;7.48;79.19
66176;BME280;52977;44.816;20.538;2023-12-22T03:48:12;97912.41;;;7.42;85.48
66176;BME280;52977;44.816;20.538;2023-12-22T03:50:39;97819.06;;;6.90;88.50
66176;BME280;52977;44.816;20.538;2023-12-22T03:53:05;97922.34;;;7.50;91.46
66176;BME280;52977;44.816;20.538;2023-12-22T03:55:31;97933.09;;;7.46;95.13
66176;BME280;52977;44.816;20.538;2023-12-22T03:57:58;97840.78;;;6.90;93.87
66176;BME280;52977;44.816;20.538;2023-12-22T04:00:24;97937.84;;;7.49;96.42
66176;BME280;52977;44.816;20.538;2023-12-22T04:02:51;97848.25;;;6.80;97.46
66176;BME280;52977;44.816;20.538;2023-12-22T04:05:17;97958.34;;;7.34;98.36
66176;BME280;52977;44.816;20.538;2023-12-22T04:07:44;97881.69;;;6.72;100.00
66176;BME280;52977;44.816;20.538;2023-12-22T04:10:10;97804.13;;;6.18;100.00
66176;BME280;52977;44.816;20.538;2023-12-22T04:12:36;97874.47;;;6.76;100.00
66176;BME280;52977;44.816;20.538;2023-12-22T04:15:03;97914.94;;;7.22;100.00
66176;BME280;52977;44.816;20.538;2023-12-22T04:17:30;97930.75;;;7.32;100.00
66176;BME280;52977;44.816;20.538;2023-12-22T04:19:56;97836.13;;;6.90;100.00
66176;BME280;52977;44.816;20.538;2023-12-22T04:22:22;97739.22;;;6.34;100.00
66176;BME280;52977;44.816;20.538;2023-12-22T04:24:49;97869.28;;;7.24;100.00
66176;BME280;52977;44.816;20.538;2023-12-22T04:27:15;97778.66;;;6.72;100.00
66176;BME280;52977;44.816;20.538;2023-12-22T04:29:42;97875.88;;;7.39;100.00
66176;BME280;52977;44.816;20.538;2023-12-22T04:32:07;97879.47;;;7.43;100.00
66176;BME280;52977;44.816;20.538;2023-12-22T04:34:33;97919.41;;;7.71;100.00
66176;BME280;52977;44.816;20.538;2023-12-22T04:36:59;97872.41;;;7.55;100.00
66176;BME280;52977;44.816;20.538;2023-12-22T04:39:25;97827.72;;;7.36;100.00
66176;BME280;52977;44.816;20.538;2023-12-22T04:41:51;97767.72;;;6.97;100.00
66176;BME280;52977;44.816;20.538;2023-12-22T04:44:17;97845.44;;;7.62;100.00
66176;BME280;52977;44.816;20.538;2023-12-22T04:46:44;97892.56;;;7.98;100.00
66176;BME280;52977;44.816;20.538;2023-12-22T04:49:10;97856.88;;;7.83;100.00
66176;BME280;52977;44.816;20.538;2023-12-22T04:51:37;97875.59;;;8.01;100.00
66176;BME280;52977;44.816;20.538;2023-12-22T04:54:03;97894.16;;;8.15;100.00
66176;BME280;52977;44.816;20.538;2023-12-22T04:56:29;97869.25;;;8.13;100.00
66176;BME280;52977;44.816;20.538;2023-12-22T04:58:55;97850.78;;;8.02;100.00
66176;BME280;52977;44.816;20.538;2023-12-22T05:01:22;97850.69;;;7.99;100.00
66176;BME280;52977;44.816;20.538;2023-12-22T05:03:48;97815.38;;;7.83;100.00
66176;BME280;52977;44.816;20.538;2023-12-22T05:06:14;97888.13;;;8.06;100.00
66176;BME280;52977;44.816;20.538;2023-12-22T05:08:41;97907.84;;;8.18;100.00
66176;BME280;52977;44.816;20.538;2023-12-22T05:11:07;97907.75;;;8.15;100.00
66176;BME280;52977;44.816;20.538;2023-12-22T05:13:33;97906.97;;;8.14;100.00
66176;BME280;52977;44.816;20.538;2023-12-22T05:15:59;97918.19;;;8.13;100.00
66176;BME280;52977;44.816;20.538;2023-12-22T05:18:25;97925.63;;;8.16;100.00
66176;BME280;52977;44.816;20.538;2023-12-22T05:20:52;97873.66;;;7.57;100.00
66176;BME280;52977;44.816;20.538;2023-12-22T05:23:19;97826.53;;;7.21;100.00
66176;BME280;52977;44.816;20.538;2023-12-22T05:25:46;97907.28;;;7.52;100.00
66176;BME280;52977;44.816;20.538;2023-12-22T05:28:12;97924.81;;;7.55;100.00
66176;BME280;52977;44.816;20.538;2023-12-22T05:30:38;97882.03;;;7.24;100.00
66176;BME280;52977;44.816;20.538;2023-12-22T05:33:04;97940.81;;;7.32;100.00
66176;BME280;52977;44.816;20.538;2023-12-22T05:35:31;97933.94;;;7.34;100.00
66176;BME280;52977;44.816;20.538;2023-12-22T05:37:57;97912.75;;;7.40;100.00
66176;BME280;52977;44.816;20.538;2023-12-22T05:40:23;97936.28;;;7.36;100.00
66176;BME280;52977;44.816;20.538;2023-12-22T05:42:50;97897.88;;;7.22;100.00
66176;BME280;52977;44.816;20.538;2023-12-22T05:45:16;97937.16;;;7.52;100.00
66176;BME280;52977;44.816;20.538;2023-12-22T05:47:42;97879.34;;;7.11;100.00
66176;BME280;52977;44.816;20.538;2023-12-22T05:50:09;97865.72;;;7.08;100.00
66176;BME280;52977;44.816;20.538;2023-12-22T05:52:36;97909.50;;;7.34;100.00
66176;BME280;52977;44.816;20.538;2023-12-22T05:55:03;97949.44;;;7.62;100.00
66176;BME280;52977;44.816;20.538;2023-12-22T05:57:29;97860.94;;;7.05;100.00
66176;BME280;52977;44.816;20.538;2023-12-22T05:59:55;97865.19;;;6.90;100.00
66176;BME280;52977;44.816;20.538;2023-12-22T06:02:21;97979.91;;;7.56;100.00
66176;BME280;52977;44.816;20.538;2023-12-22T06:04:46;97908.91;;;7.00;100.00
66176;BME280;52977;44.816;20.538;2023-12-22T06:07:12;97954.91;;;7.50;100.00
66176;BME280;52977;44.816;20.538;2023-12-22T06:09:38;97887.53;;;6.99;100.00
66176;BME280;52977;44.816;20.538;2023-12-22T06:12:05;97956.00;;;7.21;100.00
66176;BME280;52977;44.816;20.538;2023-12-22T06:14:32;97867.09;;;6.89;100.00
66176;BME280;52977;44.816;20.538;2023-12-22T06:16:58;97890.66;;;7.13;100.00
66176;BME280;52977;44.816;20.538;2023-12-22T06:19:24;97954.78;;;7.59;100.00
66176;BME280;52977;44.816;20.538;2023-12-22T06:21:54;97905.38;;;7.41;100.00
66176;BME280;52977;44.816;20.538;2023-12-22T06:24:20;97904.03;;;7.47;100.00
66176;BME280;52977;44.816;20.538;2023-12-22T06:26:46;97970.38;;;7.90;100.00
66176;BME280;52977;44.816;20.538;2023-12-22T06:29:13;97917.03;;;7.53;100.00
66176;BME280;52977;44.816;20.538;2023-12-22T06:31:40;97969.88;;;8.00;100.00
66176;BME280;52977;44.816;20.538;2023-12-22T06:34:06;97971.53;;;8.05;99.22
66176;BME280;52977;44.816;20.538;2023-12-22T06:36:32;97917.28;;;7.64;98.30
66176;BME280;52977;44.816;20.538;2023-12-22T06:38:59;97932.22;;;7.70;98.12
66176;BME280;52977;44.816;20.538;2023-12-22T06:41:29;98002.53;;;8.16;95.69
66176;BME280;52977;44.816;20.538;2023-12-22T06:43:57;97987.94;;;7.93;96.11
66176;BME280;52977;44.816;20.538;2023-12-22T06:46:26;97982.16;;;7.94;93.35
66176;BME280;52977;44.816;20.538;2023-12-22T06:48:56;98010.47;;;8.09;93.10
66176;BME280;52977;44.816;20.538;2023-12-22T06:51:27;98018.50;;;8.18;91.16
66176;BME280;52977;44.816;20.538;2023-12-22T06:53:54;98044.47;;;8.31;89.39
66176;BME280;52977;44.816;20.538;2023-12-22T06:56:23;98054.31;;;8.36;88.13
66176;BME280;52977;44.816;20.538;2023-12-22T06:58:51;98013.41;;;8.16;88.10
66176;BME280;52977;44.816;20.538;2023-12-22T07:01:25;98049.53;;;8.45;89.07
66176;BME280;52977;44.816;20.538;2023-12-22T07:03:51;97987.25;;;8.12;88.80
66176;BME280;52977;44.816;20.538;2023-12-22T07:06:18;98020.47;;;8.33;88.09
66176;BME280;52977;44.816;20.538;2023-12-22T07:08:44;98047.06;;;8.40;89.49
66176;BME280;52977;44.816;20.538;2023-12-22T07:11:10;98011.38;;;8.13;88.68
66176;BME280;52977;44.816;20.538;2023-12-22T07:13:37;97957.44;;;7.71;89.45
66176;BME280;52977;44.816;20.538;2023-12-22T07:16:03;98006.41;;;8.15;87.99
66176;BME280;52977;44.816;20.538;2023-12-22T07:18:29;97974.25;;;7.89;87.13
66176;BME280;52977;44.816;20.538;2023-12-22T07:21:00;98059.81;;;8.52;85.08
66176;BME280;52977;44.816;20.538;2023-12-22T07:23:26;98072.28;;;8.53;85.53
66176;BME280;52977;44.816;20.538;2023-12-22T07:25:52;98043.94;;;8.26;87.28
66176;BME280;52977;44.816;20.538;2023-12-22T07:28:18;98036.31;;;8.31;88.21
66176;BME280;52977;44.816;20.538;2023-12-22T07:30:44;98079.56;;;8.49;89.13
66176;BME280;52977;44.816;20.538;2023-12-22T07:33:11;98039.03;;;8.31;88.70
66176;BME280;52977;44.816;20.538;2023-12-22T07:35:37;98031.75;;;8.19;87.97
66176;BME280;52977;44.816;20.538;2023-12-22T07:38:03;98083.63;;;8.43;89.24
66176;BME280;52977;44.816;20.538;2023-12-22T07:40:30;98082.00;;;8.26;88.79
66176;BME280;52977;44.816;20.538;2023-12-22T07:42:57;98089.31;;;8.50;85.27
66176;BME280;52977;44.816;20.538;2023-12-22T07:45:23;98076.94;;;8.12;87.73
66176;BME280;52977;44.816;20.538;2023-12-22T07:47:53;98034.16;;;7.80;88.30
66176;BME280;52977;44.816;20.538;2023-12-22T07:50:19;98090.06;;;8.22;88.04
66176;BME280;52977;44.816;20.538;2023-12-22T07:52:47;98084.97;;;8.20;87.32
66176;BME280;52977;44.816;20.538;2023-12-22T07:55:13;98092.97;;;8.29;87.76
66176;BME280;52977;44.816;20.538;2023-12-22T07:57:38;98110.81;;;8.43;88.93
66176;BME280;52977;44.816;20.538;2023-12-22T08:00:05;98120.22;;;8.45;89.12
66176;BME280;52977;44.816;20.538;2023-12-22T08:02:37;98102.31;;;8.44;89.37
66176;BME280;52977;44.816;20.538;2023-12-22T08:05:03;98060.53;;;8.36;88.61
66176;BME280;52977;44.816;20.538;2023-12-22T08:07:29;98074.69;;;8.42;88.81
66176;BME280;52977;44.816;20.538;2023-12-22T08:09:56;98003.19;;;7.97;89.09
66176;BME280;52977;44.816;20.538;2023-12-22T08:12:25;98097.47;;;8.50;90.27
66176;BME280;52977;44.816;20.538;2023-12-22T08:14:52;98111.47;;;8.52;90.17
66176;BME280;52977;44.816;20.538;2023-12-22T08:17:18;98046.28;;;8.11;90.35
66176;BME280;52977;44.816;20.538;2023-12-22T08:19:44;98036.50;;;7.94;88.63
66176;BME280;52977;44.816;20.538;2023-12-22T08:22:10;98091.13;;;8.46;86.95
66176;BME280;52977;44.816;20.538;2023-12-22T08:24:36;98086.13;;;8.35;87.70
66176;BME280;52977;44.816;20.538;2023-12-22T08:27:02;98080.69;;;8.35;86.93
66176;BME280;52977;44.816;20.538;2023-12-22T08:29:29;98053.56;;;8.23;85.34
66176;BME280;52977;44.816;20.538;2023-12-22T08:31:54;98076.16;;;8.39;84.54
66176;BME280;52977;44.816;20.538;2023-12-22T08:34:20;98043.31;;;8.16;83.93
66176;BME280;52977;44.816;20.538;2023-12-22T08:36:45;97975.22;;;7.68;83.83
66176;BME280;52977;44.816;20.538;2023-12-22T08:39:11;98123.78;;;8.62;84.15
66176;BME280;52977;44.816;20.538;2023-12-22T08:41:37;98114.31;;;8.55;82.32
66176;BME280;52977;44.816;20.538;2023-12-22T08:44:05;98158.31;;;8.74;82.33
66176;BME280;52977;44.816;20.538;2023-12-22T08:46:31;98157.44;;;8.69;83.15
66176;BME280;52977;44.816;20.538;2023-12-22T08:48:58;98155.13;;;8.71;84.39
66176;BME280;52977;44.816;20.538;2023-12-22T08:51:27;98126.16;;;8.63;83.52
66176;BME280;52977;44.816;20.538;2023-12-22T08:53:54;98100.53;;;8.36;84.13
66176;BME280;52977;44.816;20.538;2023-12-22T08:56:23;98153.56;;;8.70;85.28
66176;BME280;52977;44.816;20.538;2023-12-22T08:58:50;98122.50;;;8.43;84.68
66176;BME280;52977;44.816;20.538;2023-12-22T09:01:18;98065.97;;;8.36;84.37
66176;BME280;52977;44.816;20.538;2023-12-22T09:03:44;98122.44;;;8.84;82.92
66176;BME280;52977;44.816;20.538;2023-12-22T09:06:19;98118.00;;;8.63;83.64
66176;BME280;52977;44.816;20.538;2023-12-22T09:08:45;98116.38;;;8.46;82.68
66176;BME280;52977;44.816;20.538;2023-12-22T09:11:16;98151.44;;;8.64;82.71
66176;BME280;52977;44.816;20.538;2023-12-22T09:13:43;98171.28;;;8.64;83.11
66176;BME280;52977;44.816;20.538;2023-12-22T09:16:10;98162.72;;;8.50;83.85
66176;BME280;52977;44.816;20.538;2023-12-22T09:18:36;98123.03;;;8.20;83.93
66176;BME280;52977;44.816;20.538;2023-12-22T09:21:04;98165.00;;;8.35;84.31
66176;BME280;52977;44.816;20.538;2023-12-22T09:23:30;98149.19;;;8.13;84.99
66176;BME280;52977;44.816;20.538;2023-12-22T09:26:16;98148.75;;;8.11;84.58
66176;BME280;52977;44.816;20.538;2023-12-22T09:28:45;98179.63;;;8.31;85.14
66176;BME280;52977;44.816;20.538;2023-12-22T09:31:12;98203.41;;;8.46;85.87
66176;BME280;52977;44.816;20.538;2023-12-22T09:33:40;98212.56;;;8.54;86.27
66176;BME280;52977;44.816;20.538;2023-12-22T09:36:08;98183.53;;;8.58;84.31
66176;BME280;52977;44.816;20.538;2023-12-22T09:38:34;98167.00;;;8.51;84.89
66176;BME280;52977;44.816;20.538;2023-12-22T09:41:01;98175.81;;;8.60;83.42
66176;BME280;52977;44.816;20.538;2023-12-22T09:43:28;98135.78;;;8.32;84.10
66176;BME280;52977;44.816;20.538;2023-12-22T09:45:55;98095.63;;;8.13;85.27
66176;BME280;52977;44.816;20.538;2023-12-22T09:48:22;98164.81;;;8.57;85.32
66176;BME280;52977;44.816;20.538;2023-12-22T09:50:54;98129.56;;;8.32;82.94
66176;BME280;52977;44.816;20.538;2023-12-22T09:53:21;98176.06;;;8.43;84.00
66176;BME280;52977;44.816;20.538;2023-12-22T09:55:49;98199.41;;;8.56;83.09
66176;BME280;52977;44.816;20.538;2023-12-22T09:58:16;98184.22;;;8.55;83.68
66176;BME280;52977;44.816;20.538;2023-12-22T10:00:43;98156.72;;;8.44;84.89
66176;BME280;52977;44.816;20.538;2023-12-22T10:03:11;98146.41;;;8.37;85.30
66176;BME280;52977;44.816;20.538;2023-12-22T10:05:41;98158.97;;;8.54;86.03
66176;BME280;52977;44.816;20.538;2023-12-22T10:08:08;98163.81;;;8.61;86.43
66176;BME280;52977;44.816;20.538;2023-12-22T10:10:55;98134.31;;;8.35;87.54
66176;BME280;52977;44.816;20.538;2023-12-22T10:13:22;98145.25;;;8.51;87.68
66176;BME280;52977;44.816;20.538;2023-12-22T10:15:49;98176.47;;;8.69;88.75
66176;BME280;52977;44.816;20.538;2023-12-22T10:18:15;98195.72;;;8.77;89.05
66176;BME280;52977;44.816;20.538;2023-12-22T10:20:42;98121.41;;;8.32;89.72
66176;BME280;52977;44.816;20.538;2023-12-22T10:23:10;98078.53;;;8.13;89.55
66176;BME280;52977;44.816;20.538;2023-12-22T10:25:40;98137.22;;;8.70;89.53
66176;BME280;52977;44.816;20.538;2023-12-22T10:28:10;98061.66;;;8.35;89.91
66176;BME280;52977;44.816;20.538;2023-12-22T10:30:37;98025.44;;;8.31;89.85
66176;BME280;52977;44.816;20.538;2023-12-22T10:33:04;98030.53;;;8.33;89.86
66176;BME280;52977;44.816;20.538;2023-12-22T10:35:30;98041.03;;;8.47;89.33
66176;BME280;52977;44.816;20.538;2023-12-22T10:37:58;98046.56;;;8.50;88.71
66176;BME280;52977;44.816;20.538;2023-12-22T10:40:25;98017.94;;;8.41;88.86
66176;BME280;52977;44.816;20.538;2023-12-22T10:42:52;98075.47;;;8.71;88.63
66176;BME280;52977;44.816;20.538;2023-12-22T10:45:19;98056.06;;;8.88;87.50
66176;BME280;52977;44.816;20.538;2023-12-22T10:47:48;98070.31;;;8.98;87.69
66176;BME280;52977;44.816;20.538;2023-12-22T10:50:19;98081.97;;;8.98;87.75
66176;BME280;52977;44.816;20.538;2023-12-22T10:52:51;97984.38;;;8.49;86.92
66176;BME280;52977;44.816;20.538;2023-12-22T10:55:17;97971.69;;;8.41;84.30
66176;BME280;52977;44.816;20.538;2023-12-22T10:57:47;98067.66;;;9.01;84.11
66176;BME280;52977;44.816;20.538;2023-12-22T11:00:15;98085.56;;;9.02;82.76
66176;BME280;52977;44.816;20.538;2023-12-22T11:02:48;98094.97;;;9.05;82.33
66176;BME280;52977;44.816;20.538;2023-12-22T11:05:18;98063.53;;;8.76;84.10
66176;BME280;52977;44.816;20.538;2023-12-22T11:07:48;98082.47;;;8.72;81.95
66176;BME280;52977;44.816;20.538;2023-12-22T11:10:19;98118.31;;;8.90;82.12
66176;BME280;52977;44.816;20.538;2023-12-22T11:12:47;98101.91;;;8.86;83.01
66176;BME280;52977;44.816;20.538;2023-12-22T11:15:14;98131.75;;;8.99;84.02
66176;BME280;52977;44.816;20.538;2023-12-22T11:17:42;98122.72;;;8.95;84.85
66176;BME280;52977;44.816;20.538;2023-12-22T11:20:15;98088.72;;;8.72;84.97
66176;BME280;52977;44.816;20.538;2023-12-22T11:22:42;98114.03;;;8.89;85.84
66176;BME280;52977;44.816;20.538;2023-12-22T11:25:09;98121.56;;;8.96;83.33
66176;BME280;52977;44.816;20.538;2023-12-22T11:27:37;98119.00;;;8.87;85.14
66176;BME280;52977;44.816;20.538;2023-12-22T11:30:04;98084.16;;;8.77;85.64
66176;BME280;52977;44.816;20.538;2023-12-22T11:32:34;98019.38;;;8.50;86.05
66176;BME280;52977;44.816;20.538;2023-12-22T11:35:02;98093.13;;;9.09;84.67
66176;BME280;52977;44.816;20.538;2023-12-22T11:37:30;98094.00;;;9.13;82.78
66176;BME280;52977;44.816;20.538;2023-12-22T11:39:57;98092.34;;;9.09;82.64
66176;BME280;52977;44.816;20.538;2023-12-22T11:42:26;98092.44;;;8.96;83.23
66176;BME280;52977;44.816;20.538;2023-12-22T11:44:54;98088.72;;;8.88;82.79
66176;BME280;52977;44.816;20.538;2023-12-22T11:47:24;98114.88;;;8.77;84.06
66176;BME280;52977;44.816;20.538;2023-12-22T11:49:50;98089.16;;;8.75;82.45
66176;BME280;52977;44.816;20.538;2023-12-22T11:52:17;98112.84;;;8.90;81.98
66176;BME280;52977;44.816;20.538;2023-12-22T11:54:54;98112.34;;;9.00;78.91
66176;BME280;52977;44.816;20.538;2023-12-22T12:00:02;98083.44;;;8.96;77.79
66176;BME280;52977;44.816;20.538;2023-12-22T12:02:40;98082.84;;;9.02;77.94
66176;BME280;52977;44.816;20.538;2023-12-22T12:05:08;98057.13;;;8.84;76.51
66176;BME280;52977;44.816;20.538;2023-12-22T12:13:15;98042.47;;;8.88;72.85
66176;BME280;52977;44.816;20.538;2023-12-22T12:15:42;98085.81;;;9.29;70.44
66176;BME280;52977;44.816;20.538;2023-12-22T12:18:08;98045.88;;;9.01;71.16
66176;BME280;52977;44.816;20.538;2023-12-22T12:20:35;98082.06;;;9.34;70.73
66176;BME280;52977;44.816;20.538;2023-12-22T12:23:02;98070.44;;;9.37;70.95
66176;BME280;52977;44.816;20.538;2023-12-22T12:25:29;98000.78;;;9.00;69.24
66176;BME280;52977;44.816;20.538;2023-12-22T12:30:30;98081.94;;;9.82;66.14
66176;BME280;52977;44.816;20.538;2023-12-22T12:33:17;98090.34;;;9.92;64.79
66176;BME280;52977;44.816;20.538;2023-12-22T12:35:44;98066.13;;;9.52;65.68
66176;BME280;52977;44.816;20.538;2023-12-22T12:38:13;98060.94;;;9.47;66.63
66176;BME280;52977;44.816;20.538;2023-12-22T12:40:40;98074.13;;;9.45;66.46
66176;BME280;52977;44.816;20.538;2023-12-22T12:43:06;98087.81;;;9.48;68.50
66176;BME280;52977;44.816;20.538;2023-12-22T12:45:33;98102.84;;;9.58;68.47
66176;BME280;52977;44.816;20.538;2023-12-22T12:48:03;98125.59;;;9.66;70.28
66176;BME280;52977;44.816;20.538;2023-12-22T12:50:29;98145.72;;;9.61;70.77
66176;BME280;52977;44.816;20.538;2023-12-22T12:52:57;98050.03;;;8.95;70.68
66176;BME280;52977;44.816;20.538;2023-12-22T12:55:24;98101.81;;;9.15;71.79
66176;BME280;52977;44.816;20.538;2023-12-22T12:57:52;98063.44;;;8.88;72.02
66176;BME280;52977;44.816;20.538;2023-12-22T13:00:28;98103.22;;;9.09;71.32
66176;BME280;52977;44.816;20.538;2023-12-22T13:03:02;98085.03;;;8.97;70.50
66176;BME280;52977;44.816;20.538;2023-12-22T13:05:29;98151.88;;;9.42;71.02
66176;BME280;52977;44.816;20.538;2023-12-22T13:08:11;98153.63;;;9.34;73.21